Mount Clemens, MI

1:47 AM EDT on March 28, 2015 (GMT -0400)
Venice Shores on Lake St. Clair | | Change Station
CLOSE
Current Station
Personal Weather Station
Location: Harrison, MI
Elevation: 577 ft
Nearby Weather Stations

Elev 577 ft 42.60 °N, 82.80 °W | Updated 5 minutes ago

Light Freezing Drizzle
Light Freezing Drizzle
16.8 °F
Feels Like 8 °F
N
6.0
Wind Variable Wind from NW
Gusts 9.2 mph

Today
High -- | Low -- °F
--% Chance of Precip.
Yesterday
High -- | Low -- °F
Precip. -- in
7:21 AM 7:52 PM
First Quarter, 59% visible
Pressure 30.13 in
Visibility 10.0 miles
Clouds Few 1700 ft
Overcast 4200 ft
Windchill 8 °F
Dew Point 12 °F
Humidity 83%
Rainfall 0.00 in
Snow Depth Not available.
UV 0 out of 12
Pollen 3.20 out of 12
Air Quality Not available.
Flu Activity Not available.
SPECI KMTC 280528Z AUTO 33007KT 10SM -FZDZ FEW017 OVC042 M08/M13 A3013 RMK AO2 SNB07E27FZDZB28 $

More Conditions Fewer Conditions

Pressure 30.13 in
Visibility 10.0 miles
Clouds Few 1700 ft
Overcast 4200 ft
Windchill 8 °F
Dew Point 12 °F
Humidity 83%
Rainfall 0.00 in
Snow Depth Not available.
UV 0 out of 12
Pollen 3.20 out of 12
Air Quality Not available.
Flu Activity Not available.
SPECI KMTC 280528Z AUTO 33007KT 10SM -FZDZ FEW017 OVC042 M08/M13 A3013 RMK AO2 SNB07E27FZDZB28 $

More Conditions Fewer Conditions

10-Day Weather Forecast

Almanac

Astronomy

Mar. 28, 2015 Rise Set
Actual Time
Civil Twilight
Nautical Twilight
Astronomical Twilight
Moon
Length of Visible Light
Length of Day
Tomorrow will be .
, % of the Moon is Illuminated

Today's Extremes

State Highs State Lows

Community

WunderPhotos

Upload Photos

1,808,934 photos uploaded!

WunderBlogs® & News

Nearby

Air Quality

  Air Quality AQ Index Pollutant
Not available.

Snow Depth

Station Depth Elevation

Earthquake Activity

City Distance Mag. Time & Date
Minimum magnitude displayed is 2.5.

Coastal Water Temperatures

Place Temperature

Stations

Nearby Weather Stations

Station Location Temp. Windchill Dew Point Humidity Wind Precip. Elev Updated Type